sensor_id;sensor_type;location;lat;lon;timestamp;P1;durP1;ratioP1;P2;durP2;ratioP2
5869;SDS011;2961;47.702;9.410;2023-04-28T00:01:26;4.07;;;3.00;;
5869;SDS011;2961;47.702;9.410;2023-04-28T00:03:52;3.30;;;3.00;;
5869;SDS011;2961;47.702;9.410;2023-04-28T00:06:20;4.03;;;3.30;;
5869;SDS011;2961;47.702;9.410;2023-04-28T00:08:48;3.07;;;2.43;;
5869;SDS011;2961;47.702;9.410;2023-04-28T00:11:15;2.70;;;2.60;;
5869;SDS011;2961;47.702;9.410;2023-04-28T00:13:42;3.27;;;2.47;;
5869;SDS011;2961;47.702;9.410;2023-04-28T00:16:09;3.47;;;3.20;;
5869;SDS011;2961;47.702;9.410;2023-04-28T00:18:35;2.70;;;2.60;;
5869;SDS011;2961;47.702;9.410;2023-04-28T00:21:02;3.40;;;2.50;;
5869;SDS011;2961;47.702;9.410;2023-04-28T00:23:29;4.27;;;2.93;;
5869;SDS011;2961;47.702;9.410;2023-04-28T00:25:57;3.20;;;2.60;;
5869;SDS011;2961;47.702;9.410;2023-04-28T00:28:24;2.87;;;2.67;;
5869;SDS011;2961;47.702;9.410;2023-04-28T00:30:51;4.77;;;2.67;;
5869;SDS011;2961;47.702;9.410;2023-04-28T00:33:18;6.10;;;3.00;;
5869;SDS011;2961;47.702;9.410;2023-04-28T00:35:44;3.20;;;3.00;;
5869;SDS011;2961;47.702;9.410;2023-04-28T00:38:11;3.73;;;2.77;;
5869;SDS011;2961;47.702;9.410;2023-04-28T00:40:38;2.50;;;2.33;;
5869;SDS011;2961;47.702;9.410;2023-04-28T00:43:06;2.17;;;2.10;;
5869;SDS011;2961;47.702;9.410;2023-04-28T00:45:33;3.33;;;3.10;;
5869;SDS011;2961;47.702;9.410;2023-04-28T00:48:00;4.10;;;2.70;;
5869;SDS011;2961;47.702;9.410;2023-04-28T00:50:27;3.43;;;2.43;;
5869;SDS011;2961;47.702;9.410;2023-04-28T00:52:54;5.87;;;3.10;;
5869;SDS011;2961;47.702;9.410;2023-04-28T00:55:21;5.73;;;2.67;;
5869;SDS011;2961;47.702;9.410;2023-04-28T00:57:50;3.00;;;2.80;;
5869;SDS011;2961;47.702;9.410;2023-04-28T01:00:19;4.20;;;3.13;;
5869;SDS011;2961;47.702;9.410;2023-04-28T01:02:47;3.80;;;2.77;;
5869;SDS011;2961;47.702;9.410;2023-04-28T01:05:15;2.90;;;2.70;;
5869;SDS011;2961;47.702;9.410;2023-04-28T01:07:43;5.77;;;2.90;;
5869;SDS011;2961;47.702;9.410;2023-04-28T01:10:10;2.50;;;2.40;;
5869;SDS011;2961;47.702;9.410;2023-04-28T01:12:36;2.27;;;2.10;;
5869;SDS011;2961;47.702;9.410;2023-04-28T01:15:04;2.70;;;2.50;;
5869;SDS011;2961;47.702;9.410;2023-04-28T01:17:33;2.30;;;2.10;;
5869;SDS011;2961;47.702;9.410;2023-04-28T01:19:59;2.10;;;2.00;;
5869;SDS011;2961;47.702;9.410;2023-04-28T01:22:26;3.10;;;2.63;;
5869;SDS011;2961;47.702;9.410;2023-04-28T01:24:54;3.00;;;2.77;;
5869;SDS011;2961;47.702;9.410;2023-04-28T01:27:23;7.50;;;2.73;;
5869;SDS011;2961;47.702;9.410;2023-04-28T01:29:50;2.70;;;2.50;;
5869;SDS011;2961;47.702;9.410;2023-04-28T01:32:17;4.27;;;2.83;;
5869;SDS011;2961;47.702;9.410;2023-04-28T01:34:43;2.73;;;2.53;;
5869;SDS011;2961;47.702;9.410;2023-04-28T01:37:11;5.10;;;2.70;;
5869;SDS011;2961;47.702;9.410;2023-04-28T01:39:38;2.93;;;2.77;;
5869;SDS011;2961;47.702;9.410;2023-04-28T01:42:06;2.90;;;2.63;;
5869;SDS011;2961;47.702;9.410;2023-04-28T01:44:33;3.93;;;2.33;;
5869;SDS011;2961;47.702;9.410;2023-04-28T01:47:00;3.33;;;2.90;;
5869;SDS011;2961;47.702;9.410;2023-04-28T01:49:26;3.03;;;2.83;;
5869;SDS011;2961;47.702;9.410;2023-04-28T01:51:53;2.33;;;2.13;;
5869;SDS011;2961;47.702;9.410;2023-04-28T01:54:20;4.63;;;2.40;;
5869;SDS011;2961;47.702;9.410;2023-04-28T01:56:47;2.40;;;2.30;;
5869;SDS011;2961;47.702;9.410;2023-04-28T01:59:15;2.77;;;2.57;;
5869;SDS011;2961;47.702;9.410;2023-04-28T02:01:42;4.53;;;2.60;;
5869;SDS011;2961;47.702;9.410;2023-04-28T02:04:09;4.30;;;2.40;;
5869;SDS011;2961;47.702;9.410;2023-04-28T02:06:36;3.03;;;2.83;;
5869;SDS011;2961;47.702;9.410;2023-04-28T02:09:03;3.10;;;2.80;;
5869;SDS011;2961;47.702;9.410;2023-04-28T02:11:29;4.87;;;2.40;;
5869;SDS011;2961;47.702;9.410;2023-04-28T02:13:56;3.30;;;3.00;;
5869;SDS011;2961;47.702;9.410;2023-04-28T02:16:24;5.70;;;3.33;;
5869;SDS011;2961;47.702;9.410;2023-04-28T02:18:51;2.40;;;2.30;;
5869;SDS011;2961;47.702;9.410;2023-04-28T02:21:18;2.60;;;2.17;;
5869;SDS011;2961;47.702;9.410;2023-04-28T02:23:45;3.30;;;3.00;;
5869;SDS011;2961;47.702;9.410;2023-04-28T02:26:11;3.07;;;2.83;;
5869;SDS011;2961;47.702;9.410;2023-04-28T02:28:38;10.27;;;3.00;;
5869;SDS011;2961;47.702;9.410;2023-04-28T02:31:05;4.33;;;3.43;;
5869;SDS011;2961;47.702;9.410;2023-04-28T02:33:34;4.73;;;3.43;;
5869;SDS011;2961;47.702;9.410;2023-04-28T02:36:02;3.40;;;3.13;;
5869;SDS011;2961;47.702;9.410;2023-04-28T02:38:30;3.10;;;2.90;;
5869;SDS011;2961;47.702;9.410;2023-04-28T02:40:57;5.80;;;3.33;;
5869;SDS011;2961;47.702;9.410;2023-04-28T02:43:24;6.60;;;4.70;;
5869;SDS011;2961;47.702;9.410;2023-04-28T02:45:51;4.40;;;4.00;;
5869;SDS011;2961;47.702;9.410;2023-04-28T02:48:18;3.53;;;3.27;;
5869;SDS011;2961;47.702;9.410;2023-04-28T02:50:47;4.23;;;3.70;;
5869;SDS011;2961;47.702;9.410;2023-04-28T02:53:14;5.00;;;3.30;;
5869;SDS011;2961;47.702;9.410;2023-04-28T02:55:41;4.00;;;3.80;;
5869;SDS011;2961;47.702;9.410;2023-04-28T02:58:08;4.10;;;3.70;;
5869;SDS011;2961;47.702;9.410;2023-04-28T03:00:35;6.93;;;3.70;;
5869;SDS011;2961;47.702;9.410;2023-04-28T03:03:02;6.83;;;3.70;;
5869;SDS011;2961;47.702;9.410;2023-04-28T03:05:28;8.40;;;4.50;;
5869;SDS011;2961;47.702;9.410;2023-04-28T03:07:57;6.30;;;4.53;;
5869;SDS011;2961;47.702;9.410;2023-04-28T03:10:24;4.20;;;3.90;;
5869;SDS011;2961;47.702;9.410;2023-04-28T03:12:51;9.70;;;4.80;;
5869;SDS011;2961;47.702;9.410;2023-04-28T03:15:18;5.33;;;4.30;;
5869;SDS011;2961;47.702;9.410;2023-04-28T03:17:45;7.10;;;5.10;;
5869;SDS011;2961;47.702;9.410;2023-04-28T03:20:12;5.53;;;4.97;;
5869;SDS011;2961;47.702;9.410;2023-04-28T03:22:39;10.87;;;4.90;;
5869;SDS011;2961;47.702;9.410;2023-04-28T03:25:07;10.23;;;5.20;;
5869;SDS011;2961;47.702;9.410;2023-04-28T03:27:34;6.33;;;4.30;;
5869;SDS011;2961;47.702;9.410;2023-04-28T03:30:01;7.07;;;4.63;;
5869;SDS011;2961;47.702;9.410;2023-04-28T03:32:28;7.10;;;5.10;;
5869;SDS011;2961;47.702;9.410;2023-04-28T03:34:54;8.83;;;5.80;;
5869;SDS011;2961;47.702;9.410;2023-04-28T03:37:26;9.23;;;5.90;;
5869;SDS011;2961;47.702;9.410;2023-04-28T03:39:53;6.67;;;6.07;;
5869;SDS011;2961;47.702;9.410;2023-04-28T03:42:21;7.17;;;5.33;;
5869;SDS011;2961;47.702;9.410;2023-04-28T03:44:48;9.57;;;5.67;;
5869;SDS011;2961;47.702;9.410;2023-04-28T03:47:15;9.57;;;6.13;;
5869;SDS011;2961;47.702;9.410;2023-04-28T03:49:42;9.40;;;6.50;;
5869;SDS011;2961;47.702;9.410;2023-04-28T03:52:08;8.27;;;6.10;;
5869;SDS011;2961;47.702;9.410;2023-04-28T03:54:35;10.80;;;6.20;;
5869;SDS011;2961;47.702;9.410;2023-04-28T03:57:02;8.10;;;6.30;;
5869;SDS011;2961;47.702;9.410;2023-04-28T03:59:30;11.37;;;6.53;;
5869;SDS011;2961;47.702;9.410;2023-04-28T04:01:57;8.70;;;6.00;;
5869;SDS011;2961;47.702;9.410;2023-04-28T04:04:24;8.57;;;6.33;;
5869;SDS011;2961;47.702;9.410;2023-04-28T04:06:51;13.10;;;5.57;;
5869;SDS011;2961;47.702;9.410;2023-04-28T04:09:18;8.57;;;6.63;;
5869;SDS011;2961;47.702;9.410;2023-04-28T04:11:45;9.73;;;7.07;;
5869;SDS011;2961;47.702;9.410;2023-04-28T04:14:11;8.97;;;7.40;;
5869;SDS011;2961;47.702;9.410;2023-04-28T04:16:39;9.40;;;7.10;;
5869;SDS011;2961;47.702;9.410;2023-04-28T04:19:06;9.87;;;6.93;;
5869;SDS011;2961;47.702;9.410;2023-04-28T04:21:33;12.63;;;6.60;;
5869;SDS011;2961;47.702;9.410;2023-04-28T04:24:00;10.20;;;6.90;;
5869;SDS011;2961;47.702;9.410;2023-04-28T04:26:27;9.43;;;6.87;;
5869;SDS011;2961;47.702;9.410;2023-04-28T04:28:53;7.80;;;6.50;;
5869;SDS011;2961;47.702;9.410;2023-04-28T04:31:20;10.43;;;6.77;;
5869;SDS011;2961;47.702;9.410;2023-04-28T04:33:48;10.40;;;7.40;;
5869;SDS011;2961;47.702;9.410;2023-04-28T04:36:15;13.17;;;7.57;;
5869;SDS011;2961;47.702;9.410;2023-04-28T04:38:42;9.90;;;7.50;;
5869;SDS011;2961;47.702;9.410;2023-04-28T04:41:09;9.03;;;8.10;;
5869;SDS011;2961;47.702;9.410;2023-04-28T04:43:36;13.53;;;8.80;;
5869;SDS011;2961;47.702;9.410;2023-04-28T04:46:02;20.77;;;8.70;;
5869;SDS011;2961;47.702;9.410;2023-04-28T04:48:29;11.57;;;8.87;;
5869;SDS011;2961;47.702;9.410;2023-04-28T04:50:57;9.63;;;7.43;;
5869;SDS011;2961;47.702;9.410;2023-04-28T04:53:24;11.30;;;8.97;;
5869;SDS011;2961;47.702;9.410;2023-04-28T04:55:54;11.00;;;8.80;;
5869;SDS011;2961;47.702;9.410;2023-04-28T04:58:21;15.37;;;9.60;;
5869;SDS011;2961;47.702;9.410;2023-04-28T05:00:48;10.50;;;8.60;;
5869;SDS011;2961;47.702;9.410;2023-04-28T05:03:14;16.40;;;8.47;;
5869;SDS011;2961;47.702;9.410;2023-04-28T05:05:42;11.23;;;9.13;;
5869;SDS011;2961;47.702;9.410;2023-04-28T05:08:11;12.63;;;9.20;;
5869;SDS011;2961;47.702;9.410;2023-04-28T05:10:38;16.20;;;9.27;;
5869;SDS011;2961;47.702;9.410;2023-04-28T05:13:05;13.68;;;11.10;;
5869;SDS011;2961;47.702;9.410;2023-04-28T05:15:32;13.97;;;9.93;;
5869;SDS011;2961;47.702;9.410;2023-04-28T05:17:58;14.17;;;11.13;;
5869;SDS011;2961;47.702;9.410;2023-04-28T05:20:30;18.67;;;11.63;;
5869;SDS011;2961;47.702;9.410;2023-04-28T05:22:57;22.03;;;10.87;;
5869;SDS011;2961;47.702;9.410;2023-04-28T05:25:25;21.50;;;11.03;;
5869;SDS011;2961;47.702;9.410;2023-04-28T05:27:52;15.70;;;10.73;;
5869;SDS011;2961;47.702;9.410;2023-04-28T05:30:19;13.50;;;11.47;;
5869;SDS011;2961;47.702;9.410;2023-04-28T05:32:45;15.70;;;10.80;;
5869;SDS011;2961;47.702;9.410;2023-04-28T05:35:12;19.30;;;9.53;;
5869;SDS011;2961;47.702;9.410;2023-04-28T05:37:39;16.50;;;10.23;;
5869;SDS011;2961;47.702;9.410;2023-04-28T05:40:08;13.03;;;9.37;;
5869;SDS011;2961;47.702;9.410;2023-04-28T05:42:36;12.70;;;9.40;;
5869;SDS011;2961;47.702;9.410;2023-04-28T05:45:04;12.30;;;9.13;;
5869;SDS011;2961;47.702;9.410;2023-04-28T05:47:32;18.67;;;9.40;;
5869;SDS011;2961;47.702;9.410;2023-04-28T05:49:58;12.13;;;9.33;;
5869;SDS011;2961;47.702;9.410;2023-04-28T05:52:25;11.43;;;8.63;;
5869;SDS011;2961;47.702;9.410;2023-04-28T05:54:52;14.70;;;9.27;;
5869;SDS011;2961;47.702;9.410;2023-04-28T05:57:19;16.27;;;9.40;;
5869;SDS011;2961;47.702;9.410;2023-04-28T05:59:47;11.23;;;8.30;;
5869;SDS011;2961;47.702;9.410;2023-04-28T06:02:14;8.70;;;6.83;;
5869;SDS011;2961;47.702;9.410;2023-04-28T06:04:41;14.23;;;7.77;;
5869;SDS011;2961;47.702;9.410;2023-04-28T06:07:09;12.67;;;6.70;;
5869;SDS011;2961;47.702;9.410;2023-04-28T06:09:36;14.73;;;7.80;;
5869;SDS011;2961;47.702;9.410;2023-04-28T06:12:03;9.60;;;6.27;;
5869;SDS011;2961;47.702;9.410;2023-04-28T06:14:32;9.13;;;6.20;;
5869;SDS011;2961;47.702;9.410;2023-04-28T06:17:01;7.87;;;6.20;;
5869;SDS011;2961;47.702;9.410;2023-04-28T06:19:28;11.07;;;6.57;;
5869;SDS011;2961;47.702;9.410;2023-04-28T06:21:55;14.27;;;6.53;;
5869;SDS011;2961;47.702;9.410;2023-04-28T06:24:22;10.73;;;6.43;;
5869;SDS011;2961;47.702;9.410;2023-04-28T06:26:49;12.63;;;8.10;;
5869;SDS011;2961;47.702;9.410;2023-04-28T06:29:16;6.30;;;5.70;;
5869;SDS011;2961;47.702;9.410;2023-04-28T06:31:44;7.50;;;5.43;;
5869;SDS011;2961;47.702;9.410;2023-04-28T06:34:12;9.80;;;5.33;;
5869;SDS011;2961;47.702;9.410;2023-04-28T06:36:39;14.00;;;7.20;;
5869;SDS011;2961;47.702;9.410;2023-04-28T06:39:06;7.47;;;4.83;;
5869;SDS011;2961;47.702;9.410;2023-04-28T06:41:33;7.80;;;4.47;;
5869;SDS011;2961;47.702;9.410;2023-04-28T06:44:00;8.67;;;4.70;;
5869;SDS011;2961;47.702;9.410;2023-04-28T06:46:26;6.60;;;4.87;;
5869;SDS011;2961;47.702;9.410;2023-04-28T06:48:54;6.83;;;5.07;;
5869;SDS011;2961;47.702;9.410;2023-04-28T06:51:22;6.47;;;4.50;;
5869;SDS011;2961;47.702;9.410;2023-04-28T06:53:49;4.80;;;4.30;;
5869;SDS011;2961;47.702;9.410;2023-04-28T06:56:17;5.83;;;4.90;;
5869;SDS011;2961;47.702;9.410;2023-04-28T06:58:44;7.10;;;4.63;;
5869;SDS011;2961;47.702;9.410;2023-04-28T07:01:11;9.00;;;4.70;;
5869;SDS011;2961;47.702;9.410;2023-04-28T07:03:38;5.77;;;4.57;;
5869;SDS011;2961;47.702;9.410;2023-04-28T07:06:05;8.03;;;4.70;;
5869;SDS011;2961;47.702;9.410;2023-04-28T07:08:33;4.13;;;3.83;;
5869;SDS011;2961;47.702;9.410;2023-04-28T07:11:00;3.87;;;3.53;;
5869;SDS011;2961;47.702;9.410;2023-04-28T07:13:28;4.37;;;3.20;;
5869;SDS011;2961;47.702;9.410;2023-04-28T07:15:55;7.53;;;3.70;;
5869;SDS011;2961;47.702;9.410;2023-04-28T07:18:21;5.70;;;4.23;;
5869;SDS011;2961;47.702;9.410;2023-04-28T07:20:48;3.80;;;3.50;;
5869;SDS011;2961;47.702;9.410;2023-04-28T07:23:15;4.80;;;4.33;;
5869;SDS011;2961;47.702;9.410;2023-04-28T07:25:43;7.30;;;4.07;;
5869;SDS011;2961;47.702;9.410;2023-04-28T07:28:10;5.30;;;4.07;;
5869;SDS011;2961;47.702;9.410;2023-04-28T07:30:38;4.63;;;4.23;;
5869;SDS011;2961;47.702;9.410;2023-04-28T07:33:04;7.43;;;4.00;;
5869;SDS011;2961;47.702;9.410;2023-04-28T07:35:31;6.07;;;4.20;;
5869;SDS011;2961;47.702;9.410;2023-04-28T07:37:59;5.00;;;3.77;;
5869;SDS011;2961;47.702;9.410;2023-04-28T07:40:25;5.40;;;3.43;;
5869;SDS011;2961;47.702;9.410;2023-04-28T07:42:54;3.53;;;3.20;;
5869;SDS011;2961;47.702;9.410;2023-04-28T07:45:21;9.40;;;3.40;;
5869;SDS011;2961;47.702;9.410;2023-04-28T07:47:48;7.73;;;4.27;;
5869;SDS011;2961;47.702;9.410;2023-04-28T07:50:15;7.50;;;3.80;;
5869;SDS011;2961;47.702;9.410;2023-04-28T07:52:42;4.40;;;4.10;;
5869;SDS011;2961;47.702;9.410;2023-04-28T07:55:08;5.73;;;3.70;;
5869;SDS011;2961;47.702;9.410;2023-04-28T07:57:35;3.90;;;3.50;;
5869;SDS011;2961;47.702;9.410;2023-04-28T08:00:04;3.07;;;2.87;;
5869;SDS011;2961;47.702;9.410;2023-04-28T08:02:32;3.03;;;2.83;;
5869;SDS011;2961;47.702;9.410;2023-04-28T08:04:59;3.80;;;2.90;;
5869;SDS011;2961;47.702;9.410;2023-04-28T08:07:26;4.90;;;3.33;;
5869;SDS011;2961;47.702;9.410;2023-04-28T08:09:54;5.20;;;2.87;;
5869;SDS011;2961;47.702;9.410;2023-04-28T08:12:20;5.50;;;3.27;;
5869;SDS011;2961;47.702;9.410;2023-04-28T08:14:47;3.67;;;3.40;;
5869;SDS011;2961;47.702;9.410;2023-04-28T08:17:15;4.10;;;3.70;;
5869;SDS011;2961;47.702;9.410;2023-04-28T08:19:43;3.67;;;3.37;;
5869;SDS011;2961;47.702;9.410;2023-04-28T08:22:10;10.70;;;4.00;;
5869;SDS011;2961;47.702;9.410;2023-04-28T08:24:37;8.43;;;3.90;;
5869;SDS011;2961;47.702;9.410;2023-04-28T08:27:04;8.60;;;3.33;;
5869;SDS011;2961;47.702;9.410;2023-04-28T08:29:31;5.17;;;3.90;;
5869;SDS011;2961;47.702;9.410;2023-04-28T08:31:59;9.87;;;4.37;;
5869;SDS011;2961;47.702;9.410;2023-04-28T08:34:27;7.30;;;4.20;;
5869;SDS011;2961;47.702;9.410;2023-04-28T08:36:54;4.90;;;4.10;;
5869;SDS011;2961;47.702;9.410;2023-04-28T08:39:21;4.20;;;3.87;;
5869;SDS011;2961;47.702;9.410;2023-04-28T08:41:48;4.70;;;4.30;;
5869;SDS011;2961;47.702;9.410;2023-04-28T08:44:15;8.17;;;4.90;;
5869;SDS011;2961;47.702;9.410;2023-04-28T08:46:42;5.30;;;4.53;;
5869;SDS011;2961;47.702;9.410;2023-04-28T08:49:11;6.33;;;4.57;;
5869;SDS011;2961;47.702;9.410;2023-04-28T08:51:44;4.60;;;4.20;;
5869;SDS011;2961;47.702;9.410;2023-04-28T08:54:14;5.10;;;4.23;;
5869;SDS011;2961;47.702;9.410;2023-04-28T08:56:43;3.90;;;3.60;;
5869;SDS011;2961;47.702;9.410;2023-04-28T08:59:11;8.80;;;3.73;;
5869;SDS011;2961;47.702;9.410;2023-04-28T09:01:38;4.73;;;4.33;;
5869;SDS011;2961;47.702;9.410;2023-04-28T09:04:05;5.00;;;4.00;;
5869;SDS011;2961;47.702;9.410;2023-04-28T09:06:32;4.13;;;3.73;;
5869;SDS011;2961;47.702;9.410;2023-04-28T09:09:18;4.27;;;3.30;;
5869;SDS011;2961;47.702;9.410;2023-04-28T09:11:50;4.50;;;3.43;;
5869;SDS011;2961;47.702;9.410;2023-04-28T09:14:17;6.80;;;3.80;;
5869;SDS011;2961;47.702;9.410;2023-04-28T09:16:44;3.90;;;3.60;;
5869;SDS011;2961;47.702;9.410;2023-04-28T09:19:11;6.70;;;3.47;;
5869;SDS011;2961;47.702;9.410;2023-04-28T09:21:44;4.40;;;4.00;;
5869;SDS011;2961;47.702;9.410;2023-04-28T09:24:25;3.77;;;3.30;;
5869;SDS011;2961;47.702;9.410;2023-04-28T09:26:56;4.17;;;3.80;;
5869;SDS011;2961;47.702;9.410;2023-04-28T09:29:22;5.90;;;4.20;;
5869;SDS011;2961;47.702;9.410;2023-04-28T09:31:49;7.40;;;4.53;;
5869;SDS011;2961;47.702;9.410;2023-04-28T09:34:17;6.43;;;4.60;;
5869;SDS011;2961;47.702;9.410;2023-04-28T09:36:44;5.70;;;3.93;;
5869;SDS011;2961;47.702;9.410;2023-04-28T09:39:11;4.10;;;3.80;;
5869;SDS011;2961;47.702;9.410;2023-04-28T09:41:39;7.90;;;4.47;;
5869;SDS011;2961;47.702;9.410;2023-04-28T09:44:14;4.97;;;4.47;;
5869;SDS011;2961;47.702;9.410;2023-04-28T09:46:42;6.90;;;4.00;;
5869;SDS011;2961;47.702;9.410;2023-04-28T09:49:10;3.97;;;3.60;;
5869;SDS011;2961;47.702;9.410;2023-04-28T09:51:37;5.70;;;4.13;;
5869;SDS011;2961;47.702;9.410;2023-04-28T09:54:05;5.93;;;3.90;;
5869;SDS011;2961;47.702;9.410;2023-04-28T09:56:32;4.53;;;3.80;;
5869;SDS011;2961;47.702;9.410;2023-04-28T09:59:03;4.00;;;3.00;;
5869;SDS011;2961;47.702;9.410;2023-04-28T10:01:31;2.77;;;2.67;;
5869;SDS011;2961;47.702;9.410;2023-04-28T10:04:02;4.00;;;3.70;;
5869;SDS011;2961;47.702;9.410;2023-04-28T10:06:30;4.00;;;3.43;;
5869;SDS011;2961;47.702;9.410;2023-04-28T10:09:00;5.67;;;4.03;;
5869;SDS011;2961;47.702;9.410;2023-04-28T10:11:28;4.40;;;3.63;;
5869;SDS011;2961;47.702;9.410;2023-04-28T10:13:55;6.20;;;3.90;;
5869;SDS011;2961;47.702;9.410;2023-04-28T10:16:23;4.77;;;3.70;;
5869;SDS011;2961;47.702;9.410;2023-04-28T10:18:55;4.97;;;4.43;;
5869;SDS011;2961;47.702;9.410;2023-04-28T10:21:22;7.60;;;3.50;;
5869;SDS011;2961;47.702;9.410;2023-04-28T10:24:07;3.60;;;3.30;;
5869;SDS011;2961;47.702;9.410;2023-04-28T10:29:27;3.65;;;3.35;;
5869;SDS011;2961;47.702;9.410;2023-04-28T10:34:50;6.33;;;3.57;;
5869;SDS011;2961;47.702;9.410;2023-04-28T10:37:17;2.77;;;2.60;;
5869;SDS011;2961;47.702;9.410;2023-04-28T10:42:56;2.83;;;2.60;;
5869;SDS011;2961;47.702;9.410;2023-04-28T10:48:53;2.10;;;2.00;;
5869;SDS011;2961;47.702;9.410;2023-04-28T10:51:30;2.20;;;1.93;;
5869;SDS011;2961;47.702;9.410;2023-04-28T10:59:43;3.33;;;3.03;;
5869;SDS011;2961;47.702;9.410;2023-04-28T11:05:18;3.27;;;2.80;;
5869;SDS011;2961;47.702;9.410;2023-04-28T11:11:10;4.17;;;3.80;;
5869;SDS011;2961;47.702;9.410;2023-04-28T11:13:38;8.23;;;3.47;;
5869;SDS011;2961;47.702;9.410;2023-04-28T11:16:05;4.43;;;3.27;;
5869;SDS011;2961;47.702;9.410;2023-04-28T11:18:33;4.30;;;3.90;;
5869;SDS011;2961;47.702;9.410;2023-04-28T11:21:21;6.13;;;4.60;;
5869;SDS011;2961;47.702;9.410;2023-04-28T11:23:49;5.73;;;4.07;;
5869;SDS011;2961;47.702;9.410;2023-04-28T11:26:17;4.10;;;3.30;;
5869;SDS011;2961;47.702;9.410;2023-04-28T11:28:48;3.30;;;3.10;;
5869;SDS011;2961;47.702;9.410;2023-04-28T11:31:16;4.83;;;2.87;;
5869;SDS011;2961;47.702;9.410;2023-04-28T11:33:45;3.17;;;2.90;;
5869;SDS011;2961;47.702;9.410;2023-04-28T11:36:26;5.53;;;4.03;;
5869;SDS011;2961;47.702;9.410;2023-04-28T11:38:56;3.43;;;3.10;;
5869;SDS011;2961;47.702;9.410;2023-04-28T11:41:22;4.03;;;3.67;;
5869;SDS011;2961;47.702;9.410;2023-04-28T11:43:50;5.90;;;3.47;;
5869;SDS011;2961;47.702;9.410;2023-04-28T11:46:18;6.00;;;3.53;;
5869;SDS011;2961;47.702;9.410;2023-04-28T11:48:45;5.30;;;4.67;;
5869;SDS011;2961;47.702;9.410;2023-04-28T11:51:30;4.80;;;3.87;;
5869;SDS011;2961;47.702;9.410;2023-04-28T11:54:02;3.70;;;3.30;;
5869;SDS011;2961;47.702;9.410;2023-04-28T11:56:30;3.20;;;2.90;;
5869;SDS011;2961;47.702;9.410;2023-04-28T11:59:04;3.17;;;3.07;;
5869;SDS011;2961;47.702;9.410;2023-04-28T12:01:33;5.50;;;3.33;;
5869;SDS011;2961;47.702;9.410;2023-04-28T12:04:01;4.47;;;3.73;;
5869;SDS011;2961;47.702;9.410;2023-04-28T12:06:30;5.97;;;3.57;;
5869;SDS011;2961;47.702;9.410;2023-04-28T12:08:57;2.63;;;2.53;;
5869;SDS011;2961;47.702;9.410;2023-04-28T12:11:28;2.83;;;2.63;;
5869;SDS011;2961;47.702;9.410;2023-04-28T12:14:02;3.47;;;3.23;;
5869;SDS011;2961;47.702;9.410;2023-04-28T12:16:36;3.87;;;3.57;;
5869;SDS011;2961;47.702;9.410;2023-04-28T12:19:12;3.90;;;3.57;;
5869;SDS011;2961;47.702;9.410;2023-04-28T12:21:40;3.50;;;3.20;;
5869;SDS011;2961;47.702;9.410;2023-04-28T12:24:17;3.83;;;3.03;;
5869;SDS011;2961;47.702;9.410;2023-04-28T12:26:46;3.17;;;2.93;;
5869;SDS011;2961;47.702;9.410;2023-04-28T12:32:03;2.70;;;2.60;;
5869;SDS011;2961;47.702;9.410;2023-04-28T12:34:31;4.13;;;2.90;;
5869;SDS011;2961;47.702;9.410;2023-04-28T12:37:00;3.40;;;3.20;;
5869;SDS011;2961;47.702;9.410;2023-04-28T12:39:29;3.13;;;2.50;;
5869;SDS011;2961;47.702;9.410;2023-04-28T12:41:57;3.33;;;3.00;;
5869;SDS011;2961;47.702;9.410;2023-04-28T12:44:24;3.53;;;3.27;;
5869;SDS011;2961;47.702;9.410;2023-04-28T12:46:52;3.43;;;3.17;;
5869;SDS011;2961;47.702;9.410;2023-04-28T12:49:19;3.60;;;3.30;;
5869;SDS011;2961;47.702;9.410;2023-04-28T12:51:47;3.83;;;3.47;;
5869;SDS011;2961;47.702;9.410;2023-04-28T12:54:15;3.83;;;3.50;;
5869;SDS011;2961;47.702;9.410;2023-04-28T12:56:42;3.53;;;3.17;;
5869;SDS011;2961;47.702;9.410;2023-04-28T12:59:08;6.63;;;2.80;;
5869;SDS011;2961;47.702;9.410;2023-04-28T13:01:35;3.70;;;3.43;;
5869;SDS011;2961;47.702;9.410;2023-04-28T13:04:02;5.03;;;3.00;;
5869;SDS011;2961;47.702;9.410;2023-04-28T13:06:30;3.80;;;3.60;;
5869;SDS011;2961;47.702;9.410;2023-04-28T13:08:57;3.57;;;3.30;;
5869;SDS011;2961;47.702;9.410;2023-04-28T13:11:25;3.20;;;3.00;;
5869;SDS011;2961;47.702;9.410;2023-04-28T13:13:52;3.20;;;2.90;;
5869;SDS011;2961;47.702;9.410;2023-04-28T13:16:21;3.60;;;3.13;;
5869;SDS011;2961;47.702;9.410;2023-04-28T13:18:52;4.00;;;3.50;;
5869;SDS011;2961;47.702;9.410;2023-04-28T13:21:20;6.03;;;3.67;;
5869;SDS011;2961;47.702;9.410;2023-04-28T13:23:47;3.57;;;3.30;;
5869;SDS011;2961;47.702;9.410;2023-04-28T13:26:14;3.40;;;3.20;;
5869;SDS011;2961;47.702;9.410;2023-04-28T13:28:45;3.60;;;3.30;;
5869;SDS011;2961;47.702;9.410;2023-04-28T13:31:12;3.83;;;3.50;;
5869;SDS011;2961;47.702;9.410;2023-04-28T13:33:39;3.80;;;3.50;;
5869;SDS011;2961;47.702;9.410;2023-04-28T13:36:06;4.73;;;4.33;;
5869;SDS011;2961;47.702;9.410;2023-04-28T13:38:33;4.63;;;4.20;;
5869;SDS011;2961;47.702;9.410;2023-04-28T13:41:00;3.70;;;3.33;;
5869;SDS011;2961;47.702;9.410;2023-04-28T13:43:27;5.00;;;3.50;;
5869;SDS011;2961;47.702;9.410;2023-04-28T13:45:55;5.03;;;4.00;;
5869;SDS011;2961;47.702;9.410;2023-04-28T13:48:22;4.70;;;4.00;;
5869;SDS011;2961;47.702;9.410;2023-04-28T13:50:51;10.17;;;3.63;;
5869;SDS011;2961;47.702;9.410;2023-04-28T13:53:18;4.40;;;3.87;;
5869;SDS011;2961;47.702;9.410;2023-04-28T13:55:45;3.50;;;3.20;;
5869;SDS011;2961;47.702;9.410;2023-04-28T13:58:14;3.67;;;3.47;;
5869;SDS011;2961;47.702;9.410;2023-04-28T14:00:40;5.60;;;3.83;;
5869;SDS011;2961;47.702;9.410;2023-04-28T14:03:08;4.00;;;3.57;;
5869;SDS011;2961;47.702;9.410;2023-04-28T14:05:35;4.63;;;3.47;;
5869;SDS011;2961;47.702;9.410;2023-04-28T14:08:02;4.03;;;3.63;;
5869;SDS011;2961;47.702;9.410;2023-04-28T14:10:30;4.10;;;3.77;;
5869;SDS011;2961;47.702;9.410;2023-04-28T14:12:57;9.07;;;4.17;;
5869;SDS011;2961;47.702;9.410;2023-04-28T14:15:23;4.50;;;3.97;;
5869;SDS011;2961;47.702;9.410;2023-04-28T14:17:50;3.97;;;3.77;;
5869;SDS011;2961;47.702;9.410;2023-04-28T14:20:18;3.93;;;3.43;;
5869;SDS011;2961;47.702;9.410;2023-04-28T14:22:45;4.00;;;3.60;;
5869;SDS011;2961;47.702;9.410;2023-04-28T14:25:12;5.30;;;3.63;;
5869;SDS011;2961;47.702;9.410;2023-04-28T14:27:39;3.50;;;3.30;;
5869;SDS011;2961;47.702;9.410;2023-04-28T14:30:06;2.97;;;2.80;;
5869;SDS011;2961;47.702;9.410;2023-04-28T14:32:34;4.30;;;3.30;;
5869;SDS011;2961;47.702;9.410;2023-04-28T14:35:02;4.10;;;3.80;;
5869;SDS011;2961;47.702;9.410;2023-04-28T14:37:31;3.37;;;3.13;;
5869;SDS011;2961;47.702;9.410;2023-04-28T14:39:58;3.90;;;3.60;;
5869;SDS011;2961;47.702;9.410;2023-04-28T14:42:26;9.40;;;2.87;;
5869;SDS011;2961;47.702;9.410;2023-04-28T14:44:55;10.50;;;4.50;;
5869;SDS011;2961;47.702;9.410;2023-04-28T14:47:22;3.20;;;2.90;;
5869;SDS011;2961;47.702;9.410;2023-04-28T14:49:49;31.40;;;7.93;;
5869;SDS011;2961;47.702;9.410;2023-04-28T14:52:17;3.20;;;3.00;;
5869;SDS011;2961;47.702;9.410;2023-04-28T14:54:45;3.30;;;3.00;;
5869;SDS011;2961;47.702;9.410;2023-04-28T14:57:12;3.20;;;2.60;;
5869;SDS011;2961;47.702;9.410;2023-04-28T14:59:40;3.13;;;2.63;;
5869;SDS011;2961;47.702;9.410;2023-04-28T15:02:06;3.20;;;2.70;;
5869;SDS011;2961;47.702;9.410;2023-04-28T15:04:34;8.00;;;2.50;;
5869;SDS011;2961;47.702;9.410;2023-04-28T15:07:01;6.77;;;2.87;;
5869;SDS011;2961;47.702;9.410;2023-04-28T15:09:28;2.27;;;2.07;;
5869;SDS011;2961;47.702;9.410;2023-04-28T15:11:56;3.60;;;2.47;;
5869;SDS011;2961;47.702;9.410;2023-04-28T15:14:23;2.93;;;2.73;;
5869;SDS011;2961;47.702;9.410;2023-04-28T15:16:50;2.83;;;2.73;;
5869;SDS011;2961;47.702;9.410;2023-04-28T15:19:17;3.10;;;2.47;;
5869;SDS011;2961;47.702;9.410;2023-04-28T15:21:44;2.83;;;2.60;;
5869;SDS011;2961;47.702;9.410;2023-04-28T15:24:11;2.87;;;2.67;;
5869;SDS011;2961;47.702;9.410;2023-04-28T15:26:39;4.00;;;2.80;;
5869;SDS011;2961;47.702;9.410;2023-04-28T15:29:07;4.33;;;3.00;;
5869;SDS011;2961;47.702;9.410;2023-04-28T15:31:35;2.10;;;1.87;;
5869;SDS011;2961;47.702;9.410;2023-04-28T15:34:02;4.43;;;2.53;;
5869;SDS011;2961;47.702;9.410;2023-04-28T15:36:29;2.33;;;2.23;;
5869;SDS011;2961;47.702;9.410;2023-04-28T15:38:56;2.53;;;2.37;;
5869;SDS011;2961;47.702;9.410;2023-04-28T15:41:23;1.53;;;1.53;;
5869;SDS011;2961;47.702;9.410;2023-04-28T15:43:50;2.50;;;2.03;;